Time;durP1;ratioP1;P1;durP2;ratioP2;P2;SDS_P1;SDS_P2;PMS_P1;PMS_P2;Temp;Humidity;BMP_temperature;BMP_pressure;BME280_temperature;BME280_humidity;BME280_pressure;Samples;Min_cycle;Max_cycle;Signal;HPM_P1;HPM_P2
2023/10/09 00:03:10;;;;;;;4.50;2.00;;;;;;;22.88;44.82;99761.13;5096486;27;1273168;-69
2023/10/09 00:05:45;;;;;;;7.53;2.57;;;;;;;22.80;45.08;99765.19;5129657;28;20608;-68
2023/10/09 00:08:16;;;;;;;6.87;2.47;;;;;;;22.79;45.13;99755.44;5129489;28;20219;-68
2023/10/09 00:10:49;;;;;;;5.70;2.53;;;;;;;22.69;45.35;99747.28;5129332;28;20189;-68
2023/10/09 00:13:16;;;;;;;8.30;2.27;;;;;;;22.74;45.42;99755.41;5129581;28;20275;-69
2023/10/09 00:15:43;;;;;;;4.67;2.53;;;;;;;22.78;45.57;99745.69;5129798;28;20189;-68
2023/10/09 00:18:12;;;;;;;3.60;2.40;;;;;;;22.67;46.04;99749.44;5129400;28;20731;-68
2023/10/09 00:20:42;;;;;;;7.80;2.33;;;;;;;22.73;45.93;99748.38;5117028;28;20282;-69
2023/10/09 00:23:15;;;;;;;14.67;2.90;;;;;;;22.75;45.75;99746.22;5114820;28;20212;-69
2023/10/09 00:26:07;;;;;;;5.27;2.20;;;;;;;22.84;45.53;99743.78;5129045;28;20633;-70
2023/10/09 00:28:34;;;;;;;10.37;2.63;;;;;;;22.66;45.98;99750.53;5129503;28;20278;-70
2023/10/09 00:31:04;;;;;;;10.40;2.73;;;;;;;22.65;46.08;99757.03;5129012;28;20638;-69
2023/10/09 00:33:32;;;;;;;8.70;2.63;;;;;;;22.81;46.35;99761.41;5129696;28;20184;-70
2023/10/09 00:36:09;;;;;;;7.33;2.43;;;;;;;22.87;45.55;99752.19;5129502;28;20252;-70
2023/10/09 00:38:38;;;;;;;8.63;1.90;;;;;;;22.80;45.63;99754.38;5129355;28;20533;-70
2023/10/09 00:41:11;;;;;;;6.93;2.30;;;;;;;22.71;46.03;99749.75;5129286;28;20252;-70
2023/10/09 00:43:42;;;;;;;8.10;2.30;;;;;;;22.72;46.33;99759.47;5128811;28;20179;-70
2023/10/09 00:46:23;;;;;;;15.93;2.87;;;;;;;22.64;45.62;99755.41;5129294;28;20191;-70
2023/10/09 00:48:55;;;;;;;3.90;2.40;;;;;;;22.59;45.43;99757.28;5129414;28;20188;-70
2023/10/09 00:51:24;;;;;;;4.23;1.77;;;;;;;22.63;45.53;99761.09;5129268;28;20279;-70
2023/10/09 00:53:53;;;;;;;3.43;2.03;;;;;;;22.55;45.00;99767.84;5128963;28;20275;-70
2023/10/09 00:56:28;;;;;;;4.37;2.40;;;;;;;22.50;45.78;99770.53;5128127;28;20584;-69
2023/10/09 00:59:00;;;;;;;6.63;1.90;;;;;;;22.57;44.64;99771.09;5128987;28;20183;-70
2023/10/09 01:01:34;;;;;;;8.53;2.00;;;;;;;22.62;44.33;99762.97;5128612;28;20235;-70
2023/10/09 01:04:12;;;;;;;4.73;1.53;;;;;;;22.62;44.96;99746.72;5129277;28;20555;-70
2023/10/09 01:06:43;;;;;;;3.63;1.60;;;;;;;22.72;43.81;99763.00;5128607;28;20214;-70
2023/10/09 01:09:12;;;;;;;3.10;1.80;;;;;;;22.74;44.39;99768.16;5128663;28;20737;-70
2023/10/09 01:11:48;;;;;;;6.27;2.23;;;;;;;22.71;43.58;99780.31;5128427;28;20566;-69
2023/10/09 01:14:15;;;;;;;4.20;1.77;;;;;;;22.78;43.50;99778.19;5116891;28;20188;-71
2023/10/09 01:16:47;;;;;;;4.30;1.57;;;;;;;22.72;43.78;99792.81;5114735;28;20196;-70
2023/10/09 01:19:20;;;;;;;5.73;1.60;;;;;;;22.71;43.38;99793.88;5114180;28;20724;-71
2023/10/09 01:21:50;;;;;;;4.03;1.70;;;;;;;22.63;43.53;99801.72;5094522;28;20251;-70
2023/10/09 01:24:19;;;;;;;3.97;1.37;;;;;;;22.45;43.62;99802.97;5094686;28;20193;-70
2023/10/09 01:26:47;;;;;;;4.00;1.67;;;;;;;22.34;43.81;99805.91;5093912;28;20687;-70
2023/10/09 01:29:16;;;;;;;3.73;1.70;;;;;;;22.31;44.02;99815.38;5094242;28;20581;-70
2023/10/09 01:31:51;;;;;;;3.00;1.60;;;;;;;22.41;43.68;99826.25;5102755;28;20200;-70
2023/10/09 01:34:24;;;;;;;2.37;1.63;;;;;;;22.30;44.08;99815.66;5114549;28;20247;-69
2023/10/09 01:36:54;;;;;;;5.07;1.50;;;;;;;22.35;44.34;99827.31;5106404;28;20177;-69
2023/10/09 01:39:23;;;;;;;3.80;1.30;;;;;;;22.43;44.51;99829.53;5103033;28;20198;-70
2023/10/09 01:41:58;;;;;;;2.73;1.17;;;;;;;22.57;44.25;99836.09;5113719;28;20216;-69
2023/10/09 01:44:26;;;;;;;2.20;1.17;;;;;;;22.60;44.09;99827.44;5114306;28;20195;-68
2023/10/09 01:46:54;;;;;;;6.93;1.87;;;;;;;22.73;44.34;99845.91;5114433;28;20211;-69
2023/10/09 01:49:29;;;;;;;1.70;1.20;;;;;;;22.79;43.86;99839.41;5114255;28;20215;-69
2023/10/09 01:51:58;;;;;;;5.87;1.40;;;;;;;22.87;44.36;99840.78;5114074;28;20196;-69
2023/10/09 01:54:36;;;;;;;2.57;1.67;;;;;;;22.94;44.03;99842.16;5114666;28;20199;-69
2023/10/09 01:57:11;;;;;;;3.90;2.00;;;;;;;23.03;43.95;99843.25;5114271;28;20279;-69
2023/10/09 01:59:43;;;;;;;6.17;1.50;;;;;;;23.09;43.69;99847.63;5114256;28;20184;-69
2023/10/09 02:02:21;;;;;;;6.13;1.73;;;;;;;23.11;43.11;99859.00;5113230;28;20679;-70
2023/10/09 02:04:51;;;;;;;3.50;1.57;;;;;;;23.07;42.78;99857.91;5114161;28;20195;-70
2023/10/09 02:07:22;;;;;;;3.73;1.63;;;;;;;23.00;43.31;99861.97;5113479;28;20680;-70
2023/10/09 02:09:50;;;;;;;3.30;1.40;;;;;;;22.71;43.18;99866.22;5113571;28;20239;-70
2023/10/09 02:12:17;;;;;;;2.60;1.87;;;;;;;22.65;43.98;99876.19;5113790;28;20253;-70
2023/10/09 02:14:44;;;;;;;7.17;1.97;;;;;;;22.66;44.24;99883.25;5113710;28;20687;-70
2023/10/09 02:17:17;;;;;;;3.03;1.87;;;;;;;22.68;43.57;99883.81;5113749;28;20625;-70
2023/10/09 02:19:48;;;;;;;6.80;1.67;;;;;;;22.41;43.50;99903.97;5112494;28;20277;-70
2023/10/09 02:22:16;;;;;;;4.73;1.70;;;;;;;22.20;44.38;99907.59;5113222;28;20303;-70
2023/10/09 02:24:51;;;;;;;3.50;2.03;;;;;;;22.19;44.36;99914.91;5092375;28;20197;-70
2023/10/09 02:30:15;;;;;;;16.20;3.13;;;;;;;21.43;47.31;99966.69;5087728;28;20191;-72
2023/10/09 02:32:43;;;;;;;14.93;2.10;;;;;;;20.85;49.46;99969.25;5101321;28;20186;-71
2023/10/09 02:35:20;;;;;;;6.17;1.97;;;;;;;20.57;50.38;99974.78;5113367;28;20293;-70
2023/10/09 02:37:47;;;;;;;14.00;2.00;;;;;;;20.03;50.24;100003.38;5113233;28;20191;-70
2023/10/09 02:40:23;;;;;;;8.53;1.70;;;;;;;19.85;51.51;100008.16;5113648;28;20277;-69
2023/10/09 02:42:52;;;;;;;12.97;2.17;;;;;;;19.63;50.20;100004.53;5112872;28;20210;-69
2023/10/09 02:45:19;;;;;;;10.23;1.70;;;;;;;19.44;51.05;100024.66;5112254;28;20190;-69
2023/10/09 02:47:48;;;;;;;6.67;1.77;;;;;;;19.16;51.06;100019.22;5112987;28;20557;-69
2023/10/09 02:50:21;;;;;;;8.07;2.97;;;;;;;18.96;52.13;100018.78;5112120;28;20301;-69
2023/10/09 02:52:52;;;;;;;9.90;1.90;;;;;;;18.56;52.33;100012.50;5112781;28;20190;-69
2023/10/09 02:55:25;;;;;;;7.30;1.50;;;;;;;18.47;53.26;100024.69;5113075;28;20540;-70
2023/10/09 02:58:04;;;;;;;7.40;1.77;;;;;;;18.32;52.73;100032.34;5112755;28;20192;-70
2023/10/09 03:00:35;;;;;;;9.70;2.10;;;;;;;18.49;52.76;100044.09;5112365;28;20184;-70
2023/10/09 03:03:06;;;;;;;11.90;2.10;;;;;;;18.55;52.03;100032.41;5112759;28;20264;-69
2023/10/09 03:05:33;;;;;;;9.20;2.70;;;;;;;18.45;52.07;100042.91;5113097;28;20179;-69
2023/10/09 03:08:00;;;;;;;9.00;1.73;;;;;;;18.23;52.06;100055.28;5112581;28;20202;-69
2023/10/09 03:10:26;;;;;;;3.87;1.37;;;;;;;18.00;52.59;100058.72;5112646;28;20229;-69
2023/10/09 03:12:54;;;;;;;7.30;1.67;;;;;;;17.86;53.98;100051.09;5112074;28;20194;-69
2023/10/09 03:15:21;;;;;;;11.07;1.60;;;;;;;17.89;52.94;100066.78;5112131;28;20199;-69
2023/10/09 03:17:49;;;;;;;13.20;1.37;;;;;;;17.76;53.13;100081.19;5112280;28;20661;-69
2023/10/09 03:20:17;;;;;;;2.60;1.40;;;;;;;17.58;53.64;100073.19;5102688;28;20196;-69
2023/10/09 03:22:45;;;;;;;7.03;1.60;;;;;;;17.46;53.69;100090.28;5091820;28;20223;-69
2023/10/09 03:25:14;;;;;;;3.17;1.93;;;;;;;17.34;54.67;100086.69;5101384;28;20733;-69
2023/10/09 03:27:45;;;;;;;5.10;1.23;;;;;;;17.21;56.77;100102.94;5111921;28;20193;-68
2023/10/09 03:30:22;;;;;;;4.40;1.63;;;;;;;17.25;54.66;100093.41;5112575;28;20270;-68
2023/10/09 03:32:50;;;;;;;3.30;1.23;;;;;;;17.44;54.59;100103.13;5112246;28;20191;-66
2023/10/09 03:35:24;;;;;;;4.60;1.40;;;;;;;17.27;54.69;100110.13;5112024;28;20277;-69
2023/10/09 03:37:53;;;;;;;4.30;1.40;;;;;;;17.38;54.19;100109.34;5111007;28;20718;-68
2023/10/09 03:40:20;;;;;;;6.43;1.60;;;;;;;17.08;55.03;100113.84;5111537;28;20285;-68
2023/10/09 03:42:48;;;;;;;7.40;1.90;;;;;;;17.01;54.48;100107.72;5110767;28;20579;-68
2023/10/09 03:45:24;;;;;;;6.77;1.73;;;;;;;17.12;54.71;100121.25;5112380;28;20199;-68
2023/10/09 03:47:57;;;;;;;3.27;1.40;;;;;;;17.20;54.94;100122.81;5111711;28;20182;-69
2023/10/09 03:50:35;;;;;;;2.90;1.33;;;;;;;17.07;55.24;100136.38;5111990;28;20253;-69
2023/10/09 03:53:06;;;;;;;9.03;1.43;;;;;;;17.06;54.88;100121.31;5111756;28;20278;-68
2023/10/09 03:55:33;;;;;;;6.17;1.60;;;;;;;17.24;55.46;100114.09;5111712;28;20210;-69
2023/10/09 03:58:00;;;;;;;3.70;1.50;;;;;;;17.21;53.59;100114.53;5111634;28;20194;-68
2023/10/09 04:00:31;;;;;;;7.23;1.43;;;;;;;17.55;53.66;100135.44;5111685;28;20237;-68
2023/10/09 04:02:58;;;;;;;3.77;1.27;;;;;;;17.25;52.43;100114.88;5111719;28;20317;-68
2023/10/09 04:05:26;;;;;;;5.70;1.27;;;;;;;17.21;52.46;100153.97;5111046;28;20267;-69
2023/10/09 04:07:54;;;;;;;4.60;1.37;;;;;;;17.12;52.43;100168.72;5111012;28;20753;-68
2023/10/09 04:13:08;;;;;;;3.80;1.37;;;;;;;16.78;53.31;100142.44;5111624;28;20249;-68
2023/10/09 04:15:36;;;;;;;10.10;1.53;;;;;;;16.78;53.63;100145.91;5110870;28;20193;-68
2023/10/09 04:18:05;;;;;;;4.20;1.50;;;;;;;16.76;53.11;100156.06;5111182;28;20186;-69
2023/10/09 04:23:35;;;;;;;5.03;1.60;;;;;;;16.43;53.99;100168.06;5054318;28;20254;-69
2023/10/09 04:26:10;;;;;;;4.37;1.13;;;;;;;16.32;55.81;100168.72;5091495;28;20183;-67
2023/10/09 04:28:37;;;;;;;4.50;1.23;;;;;;;16.46;53.69;100173.00;5100734;28;20609;-68
2023/10/09 04:31:07;;;;;;;5.13;1.40;;;;;;;16.28;54.15;100186.28;5111284;28;20217;-69
2023/10/09 04:33:42;;;;;;;6.43;1.47;;;;;;;16.04;55.06;100173.66;5111349;28;20194;-69
2023/10/09 04:36:28;;;;;;;6.43;1.40;;;;;;;16.17;55.29;100195.03;5111668;28;20262;-68
2023/10/09 04:39:25;;;;;;;4.20;1.40;;;;;;;16.17;53.47;100189.66;5111211;28;20562;-69
2023/10/09 04:41:53;;;;;;;6.07;1.27;;;;;;;16.09;52.86;100188.03;5096744;28;20642;-73
2023/10/09 04:44:22;;;;;;;3.43;1.57;;;;;;;16.02;52.07;100197.16;5102657;28;20225;-70
2023/10/09 04:49:49;;;;;;;3.87;1.80;;;;;;;15.47;53.56;100194.09;5110630;28;20575;-67
2023/10/09 04:52:19;;;;;;;3.60;1.60;;;;;;;15.23;54.10;100194.72;5103172;28;20193;-75
2023/10/09 04:57:27;;;;;;;8.67;1.57;;;;;;;16.09;51.97;100209.50;5113577;28;20206;-64
2023/10/09 04:59:58;;;;;;;6.07;1.67;;;;;;;16.31;52.59;100204.63;5113291;28;20183;-64
2023/10/09 05:02:36;;;;;;;2.97;1.40;;;;;;;16.56;49.71;100210.88;5113092;28;20215;-65
2023/10/09 05:05:16;;;;;;;1.83;1.60;;;;;;;16.55;49.59;100225.34;5102272;28;20189;-61
2023/10/09 05:07:54;;;;;;;3.07;1.30;;;;;;;16.58;50.45;100224.94;5094105;28;20269;-61
2023/10/09 05:10:25;;;;;;;3.93;1.37;;;;;;;16.79;48.32;100227.25;5110376;28;20185;-61
2023/10/09 05:12:56;;;;;;;2.10;1.20;;;;;;;16.84;47.99;100236.28;5113782;28;20186;-61
2023/10/09 05:15:26;;;;;;;4.90;1.70;;;;;;;17.05;47.84;100224.34;5108124;28;20182;-61
2023/10/09 05:17:56;;;;;;;2.30;1.60;;;;;;;17.28;46.09;100237.97;5114299;28;20186;-61
2023/10/09 05:23:25;;;;;;;3.80;1.50;;;;;;;17.05;45.38;100232.38;5112983;28;20350;-61
2023/10/09 05:25:53;;;;;;;8.00;1.87;;;;;;;17.05;44.74;100252.00;5105012;28;20262;-61
2023/10/09 05:28:30;;;;;;;9.03;1.67;;;;;;;16.77;45.20;100253.47;5113472;28;20259;-61
2023/10/09 05:31:06;;;;;;;3.07;1.50;;;;;;;16.58;45.58;100251.75;5112416;28;20186;-62
2023/10/09 05:33:36;;;;;;;8.27;1.60;;;;;;;16.78;47.17;100255.13;5096844;28;20191;-64
2023/10/09 05:36:31;;;;;;;2.83;1.47;;;;;;;17.00;42.72;100291.28;5093625;28;20179;-62
2023/10/09 05:39:18;;;;;;;3.53;1.73;;;;;;;17.00;42.34;100284.06;5093818;28;20193;-61
2023/10/09 05:41:52;;;;;;;6.70;1.60;;;;;;;16.69;42.11;100284.06;5101509;28;20198;-60
2023/10/09 05:47:29;;;;;;;4.60;1.57;;;;;;;16.16;43.51;100271.13;5101469;28;20304;-62
2023/10/09 05:50:19;;;;;;;7.03;1.77;;;;;;;16.66;45.13;100286.38;5103675;28;20179;-60
2023/10/09 05:53:06;;;;;;;6.37;1.93;;;;;;;17.23;43.22;100299.59;5101393;28;20668;-62
2023/10/09 06:03:55;;;;;;;5.47;2.30;;;;;;;18.36;42.06;100313.31;5034863;28;20252;-64
2023/10/09 06:06:42;;;;;;;5.60;2.30;;;;;;;19.00;38.76;100316.16;5092391;28;20237;-65
2023/10/09 06:09:49;;;;;;;5.73;2.80;;;;;;;18.96;38.16;100331.97;5092384;28;20672;-64
2023/10/09 06:12:33;;;;;;;8.70;2.70;;;;;;;19.46;38.66;100343.22;5098126;28;20205;-66
2023/10/09 06:15:18;;;;;;;7.00;3.07;;;;;;;19.48;36.75;100341.13;5112457;28;20294;-63
2023/10/09 06:17:50;;;;;;;5.57;2.50;;;;;;;19.38;37.50;100357.84;5112514;28;20274;-63
2023/10/09 06:23:15;;;;;;;2.47;1.97;;;;;;;18.64;37.38;100359.31;5102536;28;20743;-63
2023/10/09 06:25:50;;;;;;;8.47;2.43;;;;;;;17.97;38.61;100383.69;5086856;28;20228;-63
2023/10/09 06:28:19;;;;;;;6.23;1.90;;;;;;;17.69;39.85;100381.47;5103349;28;20186;-63
2023/10/09 06:30:47;;;;;;;2.67;1.53;;;;;;;17.38;39.66;100386.00;5105473;28;20223;-64
2023/10/09 06:33:29;;;;;;;3.23;1.90;;;;;;;17.10;40.43;100396.31;5092745;28;20195;-64
2023/10/09 06:35:56;;;;;;;4.10;1.80;;;;;;;17.03;41.49;100396.34;5097191;28;20183;-63
2023/10/09 06:38:33;;;;;;;2.90;1.73;;;;;;;17.07;40.57;100402.13;5103300;28;20193;-63
2023/10/09 06:43:52;;;;;;;6.50;1.30;;;;;;;17.14;41.21;100402.91;5111724;28;20221;-63
2023/10/09 06:49:28;;;;;;;5.23;1.80;;;;;;;16.90;41.17;100406.38;5111910;28;20309;-63
2023/10/09 06:52:08;;;;;;;3.90;1.63;;;;;;;17.03;43.37;100411.66;5111207;28;20196;-64
2023/10/09 06:54:37;;;;;;;5.40;1.50;;;;;;;17.10;41.83;100418.63;5097116;28;20293;-65
2023/10/09 06:57:30;;;;;;;3.77;1.60;;;;;;;17.20;41.38;100420.84;5091802;28;20192;-64
2023/10/09 07:02:45;;;;;;;5.27;1.77;;;;;;;16.95;41.20;100428.81;5056669;28;20292;-64
2023/10/09 07:05:17;;;;;;;2.57;1.60;;;;;;;17.17;41.17;100438.22;5091512;28;20183;-64
2023/10/09 07:07:54;;;;;;;3.17;1.57;;;;;;;17.15;41.18;100444.84;5091341;28;20180;-63
2023/10/09 07:10:32;;;;;;;4.00;1.80;;;;;;;17.18;41.58;100447.06;5091776;28;20188;-63
2023/10/09 07:13:01;;;;;;;5.07;1.67;;;;;;;17.18;40.90;100449.75;5090879;28;20214;-64
2023/10/09 07:18:23;;;;;;;2.27;2.07;;;;;;;17.28;41.00;100442.06;5051253;28;20679;-65
2023/10/09 07:21:01;;;;;;;2.00;1.67;;;;;;;17.13;41.13;100444.22;5091334;28;20543;-64
2023/10/09 07:23:33;;;;;;;5.70;1.90;;;;;;;16.96;41.69;100453.81;5092075;28;20582;-64
2023/10/09 07:26:23;;;;;;;2.40;1.87;;;;;;;17.07;41.34;100445.88;5092340;28;20188;-64
2023/10/09 07:28:49;;;;;;;4.80;1.67;;;;;;;17.21;41.22;100449.34;5092043;28;20187;-65
2023/10/09 07:31:26;;;;;;;3.47;1.70;;;;;;;17.02;41.32;100447.59;5091986;28;20199;-64
2023/10/09 07:34:06;;;;;;;3.50;2.27;;;;;;;17.12;41.45;100447.94;5091794;28;20194;-65
2023/10/09 07:36:35;;;;;;;2.30;2.20;;;;;;;17.35;41.32;100453.59;5091492;28;20183;-64
2023/10/09 07:39:02;;;;;;;2.67;1.60;;;;;;;17.18;41.46;100452.44;5091919;28;20199;-64
2023/10/09 07:41:44;;;;;;;2.20;1.60;;;;;;;17.46;41.12;100455.59;5091452;28;20191;-64
2023/10/09 07:44:33;;;;;;;2.37;1.67;;;;;;;17.97;40.31;100458.94;5091162;28;20244;-64
2023/10/09 07:47:17;;;;;;;3.40;1.50;;;;;;;18.50;39.28;100457.44;5090686;28;20191;-65
2023/10/09 07:49:48;;;;;;;2.60;1.83;;;;;;;18.99;38.42;100458.06;5091454;28;20179;-65
2023/10/09 07:52:16;;;;;;;4.53;1.90;;;;;;;19.46;38.70;100467.19;5090735;28;20644;-70
2023/10/09 07:54:49;;;;;;;3.57;1.87;;;;;;;19.96;36.12;100452.28;5105287;28;20207;-74
2023/10/09 07:57:17;;;;;;;3.10;1.80;;;;;;;20.63;36.49;100447.09;5111812;28;20224;-72
2023/10/09 07:59:54;;;;;;;1.87;1.60;;;;;;;21.35;34.26;100455.59;5110804;28;20190;-73
2023/10/09 08:02:31;;;;;;;4.90;2.47;;;;;;;21.76;33.34;100452.56;5111221;28;20314;-74
2023/10/09 08:05:03;;;;;;;2.90;2.23;;;;;;;21.89;33.97;100447.63;5110733;28;20259;-74
2023/10/09 08:07:35;;;;;;;5.10;2.57;;;;;;;22.42;35.36;100450.63;5111674;28;20184;-75
2023/10/09 08:12:58;;;;;;;7.00;3.30;;;;;;;24.03;33.13;100448.69;5111133;28;20569;-76
2023/10/09 08:15:27;;;;;;;3.30;3.00;;;;;;;24.79;31.31;100452.69;5111398;28;20280;-75
2023/10/09 08:17:58;;;;;;;5.17;3.13;;;;;;;25.32;30.26;100451.53;5111396;28;20205;-76
2023/10/09 08:20:25;;;;;;;7.07;3.40;;;;;;;25.49;29.54;100443.94;5100472;28;20722;-76
2023/10/09 08:22:55;;;;;;;7.63;3.40;;;;;;;25.72;29.57;100455.09;5091340;28;20191;-76
2023/10/09 08:25:27;;;;;;;4.20;3.13;;;;;;;26.06;28.34;100458.97;5095109;28;20187;-76
2023/10/09 08:27:58;;;;;;;13.67;6.80;;;;;;;26.17;31.58;100443.44;5094557;28;20568;-77
2023/10/09 08:36:04;;;;;;;5.13;3.90;;;;;;;27.42;27.50;100435.59;5087892;28;20195;-77
2023/10/09 08:38:34;;;;;;;6.47;2.90;;;;;;;27.25;25.86;100445.25;5095174;28;20185;-77
2023/10/09 08:41:15;;;;;;;7.70;3.27;;;;;;;27.47;26.51;100434.75;5095009;28;20221;-74
2023/10/09 08:43:55;;;;;;;5.33;3.03;;;;;;;27.54;26.14;100437.97;5094501;28;20214;-74
2023/10/09 08:46:26;;;;;;;3.37;2.90;;;;;;;27.60;26.41;100431.38;5094960;28;20210;-73
2023/10/09 08:48:55;;;;;;;5.37;2.83;;;;;;;27.67;25.30;100437.31;5095423;28;20184;-75
2023/10/09 08:51:23;;;;;;;5.87;2.70;;;;;;;27.71;26.22;100422.00;5094814;28;20196;-74
2023/10/09 08:53:49;;;;;;;4.07;2.67;;;;;;;27.76;25.33;100432.91;5095054;28;20719;-74
2023/10/09 08:56:21;;;;;;;6.40;3.17;;;;;;;27.45;26.16;100423.31;5094342;28;20191;-74
2023/10/09 08:58:52;;;;;;;10.47;2.70;;;;;;;26.97;26.58;100421.38;5094791;28;20249;-75
2023/10/09 09:01:21;;;;;;;8.33;3.07;;;;;;;26.72;26.79;100421.50;5094957;28;20270;-76
2023/10/09 09:03:50;;;;;;;4.77;3.10;;;;;;;26.49;26.85;100424.81;5094831;28;20229;-75
2023/10/09 09:06:19;;;;;;;9.47;2.97;;;;;;;26.28;26.93;100418.59;5094611;28;20195;-75
2023/10/09 09:08:46;;;;;;;17.90;3.50;;;;;;;26.34;27.87;100413.97;5094671;28;20227;-75
2023/10/09 09:11:16;;;;;;;7.90;3.40;;;;;;;26.59;27.89;100413.91;5094593;28;20191;-76
2023/10/09 09:13:48;;;;;;;3.80;3.00;;;;;;;26.32;27.37;100410.69;5094251;28;20246;-75
2023/10/09 09:16:20;;;;;;;10.30;3.03;;;;;;;26.36;27.33;100411.75;5107154;28;20197;-74
2023/10/09 09:18:52;;;;;;;3.70;3.00;;;;;;;26.30;28.13;100399.25;5114447;28;20578;-74
2023/10/09 09:21:22;;;;;;;4.90;2.70;;;;;;;26.32;27.44;100395.16;5112700;28;20433;-74
2023/10/09 09:24:01;;;;;;;7.03;3.80;;;;;;;26.29;28.36;100397.63;5114224;28;20701;-74
2023/10/09 09:26:44;;;;;;;9.23;2.77;;;;;;;26.41;28.20;100398.16;5115083;28;20237;-73
2023/10/09 09:29:11;;;;;;;5.70;3.13;;;;;;;26.62;27.20;100389.63;5115157;28;20189;-74
2023/10/09 09:31:52;;;;;;;11.93;2.83;;;;;;;26.35;27.42;100394.63;5115115;28;20263;-75
2023/10/09 09:34:22;;;;;;;6.03;2.77;;;;;;;25.96;27.87;100382.72;5114090;28;20279;-75
2023/10/09 09:36:56;;;;;;;3.03;2.73;;;;;;;26.04;28.36;100378.63;5114740;28;20191;-75
2023/10/09 09:39:27;;;;;;;5.43;2.70;;;;;;;26.24;28.76;100373.94;5114757;28;20190;-75
2023/10/09 09:42:03;;;;;;;6.27;2.17;;;;;;;26.52;28.57;100380.66;5113713;28;20182;-74
2023/10/09 09:44:33;;;;;;;4.73;2.67;;;;;;;26.75;27.79;100385.50;5103520;28;20231;-75
2023/10/09 09:47:06;;;;;;;7.70;2.57;;;;;;;26.82;27.87;100380.56;5108982;28;20670;-75
2023/10/09 09:49:38;;;;;;;6.53;2.53;;;;;;;26.97;26.96;100380.47;5107189;28;20195;-77
2023/10/09 09:52:09;;;;;;;5.43;2.23;;;;;;;26.29;27.46;100373.91;5094399;28;20179;-77
2023/10/09 09:54:38;;;;;;;5.63;2.57;;;;;;;26.25;28.25;100363.88;5113064;28;20872;-81
2023/10/09 09:57:08;;;;;;;4.43;2.83;;;;;;;26.00;28.26;100366.66;5113388;28;20198;-81
2023/10/09 09:59:49;;;;;;;5.93;2.37;;;;;;;26.26;28.59;100360.03;5110868;28;20190;-79
2023/10/09 10:02:22;;;;;;;5.90;2.67;;;;;;;26.51;28.32;100351.78;5092979;28;20223;-80
2023/10/09 10:04:56;;;;;;;8.87;2.50;;;;;;;26.65;27.87;100337.28;5091846;28;20670;-82
2023/10/09 10:07:24;;;;;;;4.83;2.00;;;;;;;26.68;27.45;100336.72;5093348;28;20200;-83
2023/10/09 10:09:54;;;;;;;3.07;2.00;;;;;;;26.80;27.83;100328.22;5098569;28;20203;-82
2023/10/09 10:13:00;;;;;;;6.67;2.50;;;;;;;26.58;27.93;100330.50;5107176;28;20281;-80
2023/10/09 10:16:00;;;;;;;6.03;2.30;;;;;;;26.75;28.15;100315.41;5113336;28;20198;-81
2023/10/09 10:18:35;;;;;;;4.00;2.03;;;;;;;26.67;27.36;100307.84;5113421;28;20218;-81
2023/10/09 10:21:15;;;;;;;2.37;2.10;;;;;;;26.71;27.52;100302.63;5112145;28;20665;-80
2023/10/09 10:23:46;;;;;;;7.87;2.30;;;;;;;26.41;28.21;100289.94;5113016;28;20178;-83
2023/10/09 10:26:26;;;;;;;4.60;2.07;;;;;;;26.30;28.06;100273.94;5107535;28;20191;-81
2023/10/09 10:29:22;;;;;;;4.87;1.73;;;;;;;25.57;28.64;100280.13;5092868;28;20187;-82
2023/10/09 10:31:56;;;;;;;15.83;2.57;;;;;;;25.40;29.35;100275.00;5107868;28;20191;-82
2023/10/09 10:34:26;;;;;;;5.33;1.83;;;;;;;25.41;30.42;100265.72;5116454;28;20201;-83
2023/10/09 10:36:58;;;;;;;4.53;2.40;;;;;;;25.28;29.59;100271.72;5123030;28;20240;-81
2023/10/09 10:39:42;;;;;;;7.27;2.60;;;;;;;25.38;29.78;100265.44;5117427;28;20202;-79
2023/10/09 10:42:14;;;;;;;6.43;2.57;;;;;;;25.52;29.94;100263.81;5114597;28;20186;-77
2023/10/09 10:44:44;;;;;;;4.07;2.60;;;;;;;25.42;29.41;100263.81;5113253;28;20238;-80
2023/10/09 10:47:24;;;;;;;6.80;2.40;;;;;;;25.62;30.31;100261.88;5111887;28;20198;-81
2023/10/09 10:49:58;;;;;;;4.47;2.03;;;;;;;25.83;29.86;100251.75;5113074;28;20288;-80
2023/10/09 10:52:41;;;;;;;3.40;2.20;;;;;;;25.31;29.28;100256.75;5110286;28;20191;-76
2023/10/09 10:55:17;;;;;;;9.87;2.00;;;;;;;25.52;29.88;100244.75;5104107;28;20179;-76
2023/10/09 10:58:09;;;;;;;2.47;2.23;;;;;;;25.70;29.04;100241.44;5109856;28;20189;-76
2023/10/09 11:03:29;;;;;;;8.13;2.20;;;;;;;24.76;30.03;100231.16;5112638;28;20359;-76
2023/10/09 11:06:12;;;;;;;9.23;2.70;;;;;;;24.55;31.16;100221.31;5112302;28;20216;-80
2023/10/09 11:08:54;;;;;;;11.03;2.57;;;;;;;24.72;30.05;100213.78;5104415;28;20199;-79
2023/10/09 11:11:21;;;;;;;9.13;2.50;;;;;;;24.81;30.18;100206.72;5091981;28;20665;-77
2023/10/09 11:13:55;;;;;;;5.10;2.00;;;;;;;24.90;30.02;100205.06;5091310;28;20682;-80
2023/10/09 11:16:39;;;;;;;10.40;2.53;;;;;;;24.79;30.58;100202.63;5099146;28;20186;-78
2023/10/09 11:19:13;;;;;;;9.10;2.10;;;;;;;24.88;29.67;100195.56;5112217;28;20182;-80
2023/10/09 11:21:42;;;;;;;8.63;1.63;;;;;;;24.31;30.82;100190.31;5091186;28;20203;-79
2023/10/09 11:24:24;;;;;;;5.93;1.77;;;;;;;24.37;31.31;100186.50;5089883;28;20778;-79
2023/10/09 11:27:04;;;;;;;2.10;1.90;;;;;;;24.16;31.21;100176.69;5109120;28;20202;-77
2023/10/09 11:29:52;;;;;;;4.20;1.80;;;;;;;24.25;30.84;100169.66;5110712;28;20194;-80
2023/10/09 11:32:22;;;;;;;3.93;2.43;;;;;;;24.60;31.72;100171.59;5111825;28;20197;-74
2023/10/09 11:34:51;;;;;;;12.60;2.30;;;;;;;24.88;30.61;100169.19;5097433;28;20187;-77
2023/10/09 11:37:38;;;;;;;8.83;2.00;;;;;;;25.00;30.51;100160.75;5095818;28;20205;-75
2023/10/09 11:40:22;;;;;;;4.20;2.30;;;;;;;24.83;29.46;100149.38;5106242;28;20562;-77
2023/10/09 11:42:50;;;;;;;3.67;1.73;;;;;;;24.90;30.61;100134.41;5111262;28;20183;-79
2023/10/09 11:45:29;;;;;;;6.10;2.50;;;;;;;24.85;29.63;100137.13;5111160;28;20222;-76
2023/10/09 11:47:57;;;;;;;2.23;2.00;;;;;;;24.92;29.70;100126.75;5111466;28;20231;-79
2023/10/09 11:50:50;;;;;;;9.70;2.20;;;;;;;24.99;29.91;100121.88;5111055;28;20288;-77
2023/10/09 11:53:33;;;;;;;4.17;2.07;;;;;;;25.07;29.39;100114.25;5111169;28;20179;-78
2023/10/09 11:56:00;;;;;;;3.30;2.10;;;;;;;25.06;29.14;100126.22;5111004;28;20646;-80
2023/10/09 11:58:27;;;;;;;3.60;2.00;;;;;;;25.07;29.00;100117.78;5111018;28;20549;-77
2023/10/09 12:00:56;;;;;;;2.77;1.73;;;;;;;25.13;28.84;100118.56;5111319;28;20639;-76
2023/10/09 12:03:28;;;;;;;4.40;1.80;;;;;;;25.25;28.57;100114.47;5110844;28;20226;-76
2023/10/09 12:05:56;;;;;;;2.70;2.10;;;;;;;25.30;28.86;100100.88;5110650;28;20210;-78
2023/10/09 12:08:26;;;;;;;3.87;2.00;;;;;;;25.31;28.38;100110.66;5110793;28;20235;-79
2023/10/09 12:10:55;;;;;;;2.40;2.03;;;;;;;25.12;28.27;100103.34;5090361;28;20589;-79
2023/10/09 12:13:23;;;;;;;2.57;1.93;;;;;;;25.10;29.09;100102.84;5070341;28;20739;-79
2023/10/09 12:15:52;;;;;;;7.20;2.30;;;;;;;25.21;28.93;100091.66;5070114;28;20744;-77
2023/10/09 12:18:21;;;;;;;4.87;1.50;;;;;;;25.35;28.06;100075.59;5071241;28;20195;-78
2023/10/09 12:20:50;;;;;;;4.25;2.08;;;;;;;25.44;27.76;100080.16;5069958;28;20461;-71
2023/10/09 12:23:18;;;;;;;7.37;2.10;;;;;;;25.43;27.79;100069.56;5071002;28;20279;-72
2023/10/09 12:25:46;;;;;;;5.80;2.20;;;;;;;25.31;28.63;100082.69;5070364;28;20219;-72
2023/10/09 12:28:13;;;;;;;5.17;2.00;;;;;;;24.82;29.15;100064.28;5070697;28;20245;-72
2023/10/09 12:30:41;;;;;;;5.47;1.80;;;;;;;24.92;29.04;100069.69;5070566;28;20261;-72
2023/10/09 12:33:08;;;;;;;2.87;1.77;;;;;;;24.71;28.87;100075.44;5069950;28;20192;-73
2023/10/09 12:35:38;;;;;;;4.53;2.30;;;;;;;24.70;29.15;100063.75;5070358;28;20713;-72
2023/10/09 12:38:08;;;;;;;5.23;2.17;;;;;;;24.58;29.66;100065.91;5070235;28;20238;-72
2023/10/09 12:40:36;;;;;;;3.00;2.13;;;;;;;24.49;29.62;100067.53;5070281;28;20188;-70
2023/10/09 12:43:05;;;;;;;4.33;2.20;;;;;;;24.39;30.19;100047.72;5070185;28;20207;-71
2023/10/09 12:45:34;;;;;;;1.87;1.77;;;;;;;24.27;30.23;100058.88;5069961;28;20784;-71
2023/10/09 12:48:03;;;;;;;5.33;2.03;;;;;;;24.27;29.81;100047.19;5070543;28;20253;-69
2023/10/09 12:50:33;;;;;;;2.27;2.07;;;;;;;24.34;29.89;100036.88;5069874;28;20207;-70